Terminal Aerodrome Forecast
Issued by NWS Northern Indiana

Home | Current Version | Previous Version | Graphics & Text | Print | Product List | Glossary On
Versions: 1 2 3 4 5 6 7 8 9 10 11 12 13 14 15 16 17
000
FTUS43 KIWX 272335
TAFFWA
TAF
KFWA 272335Z 2800/2824 09003KT P6SM VCSH FEW070 OVC100
     FM280800 02008KT 5SM BR OVC008
     FM281400 01008KT P6SM OVC008
     FM282100 02007KT P6SM BKN025=

USA.gov is the U.S. government's official web portal to all federal, state and local government web resources and services.